Aviation Digital Data Service (ADDS)

Output produced by METARs form (2031 UTC 13 August 2020)
found at http://aviationweather.gov/metar/data/
 
KBOS 131954Z 11010KT 10SM FEW070 SCT170 BKN250 26/14 A3008 RMK AO2 SLP185 T02610144
KBOS 132022Z 1320/1424 11010KT P6SM FEW070 
     FM140600 35004KT P6SM FEW250 
     FM141400 05005KT P6SM SCT250
       
KLGA 131951Z 07007KT 10SM SCT029 BKN075 OVC250 26/20 A3007 RMK AO2 SLP181 T02560200
KLGA 131720Z 1318/1424 04005KT P6SM VCSH FEW020 BKN070 OVC150 
     FM140300 VRB04KT P6SM SCT070 BKN150 
     TEMPO 1408/1412 1SM BR BKN010 
     FM141200 05004KT 3SM BR VCSH SCT005 BKN030 BKN150 
     FM141600 08008KT P6SM SCT030 BKN045
       
KJFK 131951Z 03007KT 10SM FEW017 FEW046 SCT075 BKN150 BKN250 26/22 A3008 RMK AO2 SLP187 T02610222
KJFK 131720Z 1318/1424 36005KT P6SM VCSH FEW017 SCT040 OVC150 
     FM132200 16005KT P6SM SCT070 BKN150 
     TEMPO 1408/1412 1SM BR BKN010 
     FM141200 05004KT 3SM BR VCSH SCT005 BKN030 BKN150 
     FM141600 08008KT P6SM SCT030 BKN045
       
KEWR 131951Z 05005KT 10SM FEW034 FEW100 BKN170 OVC250 27/21 A3007 RMK AO2 SLP182 T02670206 $
KEWR 131720Z 1318/1424 36005KT P6SM VCSH SCT025 BKN070 OVC150 
     FM140000 VRB04KT P6SM BKN150 
     FM141000 VRB04KT P6SM SCT005 BKN150 
     FM141700 07007KT P6SM SCT025 BKN045
       
KPHL 131954Z 11005KT 7SM -RA SCT055TCU OVC120 26/24 A3007 RMK AO2 SLP182 TCU N P0000 T02610239
KPHL 132008Z 1320/1424 12006KT P6SM -SHRA SCT025 OVC080 
     FM132200 10005KT P6SM SCT025 BKN050 
     FM140500 VRB04KT 5SM BR SCT010 
     TEMPO 1408/1411 2SM BR BKN010 
     FM141300 05008KT P6SM BKN025 
     FM141700 06008KT P6SM SCT025 BKN080
       
KBWI 131954Z 07008KT 10SM R10/4500VP6000FT SCT015 SCT100 BKN190 BKN250 27/23 A3003 RMK AO2 SLP167 T02720228
KBWI 131903Z 1319/1424 01003KT P6SM BKN030 
     FM132100 08006KT P6SM BKN050 
     FM140400 07004KT P6SM BKN020 
     FM140700 05004KT P6SM OVC015 
     FM141700 06008KT P6SM BKN035
       
KDCA 131952Z 05008KT 10SM SCT023 SCT140 OVC230 28/23 A3003 RMK AO2 SLP169 T02830233
KDCA 131746Z 1318/1424 36007KT P6SM FEW020 BKN120 
     FM140300 07005KT P6SM BKN030 
     FM140600 05004KT P6SM BKN015 
     FM141600 06007KT P6SM BKN035
       
KIAD 131952Z 12005KT 10SM BKN025 BKN055 BKN090 28/22 A3003 RMK AO2 SLP167 T02780217
KIAD 132001Z 1320/1424 08006KT P6SM BKN040 
     TEMPO 1320/1322 11005KT P6SM BKN025 
     FM140200 08004KT P6SM BKN025 
     FM140600 04004KT P6SM BKN015 
     FM141800 05007KT P6SM OVC035
       
KCLT 132018Z 16006KT 10SM TS FEW013 SCT026CB SCT120 BKN200 26/22 A2997 RMK AO2 FRQ LTGICCCCG NW-NE TSE1956B17 TS NW-NE MOV SLWLY S TS S-SW MOV S T02610222
KCLT 131949Z 1320/1424 17006KT P6SM VCSH SCT025 BKN035 
     TEMPO 1320/1322 VRB15G30KT 3SM TSRA BR BKN025CB 
     FM132200 08003KT P6SM VCSH SCT050 OVC250 
     FM140200 08003KT P6SM SCT024 BKN050 
     FM140900 05002KT P6SM BKN010 
     FM141400 10003KT P6SM SCT040 
     PROB30 1416/1422 4SM TSRA BR BKN025CB 
     FM142200 10003KT P6SM VCSH SCT050
       
KATL 131952Z 26007KT 10SM FEW050 FEW100 SCT200 SCT250 34/21 A2995 RMK AO2 SLP131 CB DSNT N TCU DSNT N E SE T03390206
KATL 131959Z 1320/1424 26007KT P6SM VCSH FEW050 FEW100 SCT250 
     TEMPO 1322/1402 VRB15G25KT 4SM TSRA SCT015 BKN030CB 
     FM140200 25005KT P6SM SHRA SCT035 BKN050 
     FM140900 VRB03KT P6SM BKN018 
     FM141000 VRB03KT P6SM BKN008 
     FM141200 00000KT P6SM BKN015 
     FM141700 21005KT P6SM BKN025
       
KTPA 131959Z COR 26008KT 10SM TS SCT040CB BKN190 34/22 A2998 RMK AO2 LTG DSNT SE TSB59 FRQ LTGICCG VC SW-W TS VC SW-W MOV N TCU ALQDS VCSH SW-W T03390217
KTPA 131740Z 1318/1424 23007KT P6SM VCTS SCT040CB BKN180 BKN250 
     FM132100 27007KT P6SM VCTS SCT040CB BKN180 BKN250 
     TEMPO 1321/1323 VRB15G25KT 4SM TSRA BKN040CB BKN250 
     FM140100 VRB03KT P6SM FEW030 BKN250 
     FM141500 21007KT P6SM FEW030 BKN250
       
KMCO 132021Z 20021G26KT 5SM TSRA SCT060CB BKN110 BKN250 27/23 A2999 RMK AO2 PK WND 19026/2021 LTG DSNT NE AND E AND W RAB04 TSE19B21 OCNL LTGCGIC OHD N-E TS OHD N-E MOV NE P0003 T02720233
KMCO 131743Z 1318/1424 27011KT P6SM VCTS SCT035CB SCT080 BKN200 
     TEMPO 1319/1322 26012G25KT 3SM TSRA BKN030CB BKN060 
     FM140100 VRB04KT P6SM FEW040 SCT100 BKN250 
     FM140400 VRB02KT P6SM SCT250 
     FM141400 18005KT P6SM FEW035 SCT250 
     FM141700 20011KT P6SM VCTS SCT035CB SCT080 BKN200
       
KMIA 131953Z 11007G16KT 10SM SCT035 BKN250 33/23 A2998 RMK AO2 SLP150 T03280233
KMIA 131736Z 1318/1424 12008KT P6SM FEW035 FEW250 
     FM140300 12005KT P6SM FEW030 FEW250 
     FM141700 12009KT P6SM FEW035 FEW200
       
KFLL 131953Z 10010KT 10SM FEW026 BKN250 32/26 A2997 RMK AO2 SLP150 TCU DSNT SE T03220256
KFLL 131736Z 1318/1424 12008KT P6SM FEW030 FEW250 
     FM140100 13005KT P6SM FEW025 FEW250 
     FM141700 12009KT P6SM FEW035 FEW150
       
KDTW 131953Z 06013G19KT 10SM FEW045 BKN210 29/09 A3008 RMK AO2 SLP182 T02940094
KDTW 131721Z 1318/1424 10005KT P6SM SCT250 
     FM140200 04005KT P6SM SCT250 
     FM141400 10005KT P6SM SCT060
       
KORD 131951Z 05007KT 10SM FEW200 SCT250 29/10 A3006 RMK AO2 SLP173 T02940100
KORD 131722Z 1318/1424 07008KT P6SM FEW040 SCT250
       
KMDW 131953Z 07006KT 10SM FEW150 SCT200 SCT250 28/12 A3006 RMK AO2 SLP167 T02830117
KMDW 131722Z 1318/1424 07008KT P6SM FEW040 SCT250
       
KMSP 131953Z 19011G19KT 10SM SCT038 SCT180 31/22 A2997 RMK AO2 SLP142 T03060217
KMSP 131739Z 1318/1424 17009KT P6SM BKN025 
     FM132000 17012G19KT P6SM SCT030 SCT120 
     FM140400 15006KT P6SM SCT040 BKN120 
     PROB30 1408/1412 3SM -TSRA BR BKN030CB 
     FM141200 13008KT P6SM BKN025 
     FM141500 16010G18KT P6SM BKN040 
     FM141800 17012G21KT P6SM SCT040 SCT120
       
KMEM 131954Z 00000KT 10SM FEW027 SCT055 BKN250 32/23 A2993 RMK AO2 SLP131 T03170228 $
KMEM 131724Z 1318/1424 15005KT P6SM VCTS SCT040CB BKN070 
     FM140200 VRB03KT P6SM SCT050 
     FM141000 VRB03KT 3SM BR BKN010 
     FM141500 30006KT P6SM SCT025 
     FM141900 32007KT P6SM VCSH BKN040
       
KDFW 131953Z 19010KT 10SM FEW060 37/21 A2988 RMK AO2 SLP106 T03720211
KDFW 131724Z 1318/1424 19012KT P6SM FEW250
       
KIAH 131953Z 17007KT 10SM FEW055 36/22 A2993 RMK AO2 SLP134 T03610217
KIAH 131730Z 1318/1424 21007KT P6SM FEW040 
     FM132100 17008KT P6SM SCT250 
     FM140800 21004KT P6SM FEW250 
     FM141500 23009KT P6SM FEW030 
     FM142100 17008KT P6SM SCT250
       
KDEN 131953Z VRB04KT 10SM FEW090 34/M03 A3011 RMK AO2 SLP100 T03391028
KDEN 131728Z 1318/1424 VRB05KT P6SM FEW080 
     FM140000 33009KT P6SM FEW080 FEW150 
     FM140200 07008KT P6SM SCT150 
     FM140500 20010KT P6SM SKC 
     FM141700 04010KT P6SM FEW100 FEW150
       
KSLC 131954Z 36004G14KT 10SM FEW110 FEW180 FEW250 33/M01 A3007 RMK AO2 SLP118 ACSL DSNT NW T03281011
KSLC 131740Z 1318/1424 32010G18KT P6SM FEW150 
     FM140000 35008KT P6SM SKC 
     FM140400 15006KT P6SM SKC 
     FM141700 31009KT P6SM SKC
       
KSEA 131953Z 26006KT 10SM FEW030 SCT250 20/08 A3017 RMK AO2 SLP220 T02000078
KSEA 131731Z 1318/1424 VRB05KT P6SM FEW020 SCT250 
     FM132000 27005KT P6SM SCT250 
     FM140100 31008KT P6SM SCT250 
     FM140900 VRB03KT P6SM SKC
       
KSFO 131956Z 02005KT 10SM FEW010 BKN200 25/16 A2991 RMK AO2 SLP129 T02500161
KSFO 131721Z 1318/1424 35007KT P6SM FEW010 FEW200 
     FM132100 29018KT P6SM FEW100 SCT150 
     FM140400 30012KT P6SM FEW100 SCT150 
     FM140700 30007KT P6SM FEW100 SCT200 
     FM141100 VRB05KT P6SM FEW100 SCT200 
     FM141600 36006KT P6SM SCT200 
     FM142100 30015KT P6SM SCT200
       
KLAX 131953Z COR 25009KT 10SM FEW050 FEW080 BKN140 BKN180 27/11 A2990 RMK A02 SLP123 T02670106
KLAX 131746Z 1318/1424 00000KT P6SM VCSH FEW070 BKN120 
     FM131900 26012KT P6SM BKN120 
     FM140300 26006KT P6SM SCT150 
     FM140900 VRB03KT P6SM SCT150 
     FM141700 23006KT P6SM SCT150 
     FM142000 26010KT P6SM SCT150
       
KSAN 131951Z 30009KT 10SM SCT200 BKN250 28/13 A2989 RMK AO2 SLP121 T02830128
KSAN 131722Z 1318/1424 28009KT P6SM BKN250 
     FM140300 VRB04KT P6SM SCT200 
     FM141200 VRB04KT P6SM SCT005 SCT200 
     FM141900 28010KT P6SM SCT250
       
KLAS 131956Z VRB04KT 7SM FEW150 BKN250 39/06 A2991 RMK AO2 SLP095 FU AND HZ VC ALQDS T03940061
KLAS 131727Z 1318/1424 08006KT P6SM SCT150 BKN250 
     FM132000 21010G18KT P6SM BKN150 BKN250 
     FM140300 20009KT P6SM SCT150 BKN250 
     FM141300 VRB05KT P6SM FEW150 FEW250
       
KPHX 131951Z 28007KT 240V330 10SM FEW120 FEW230 SCT250 44/11 A2979 RMK AO2 SLP063 VIRGA DSNT NW CB DSNT SE T04440106
KPHX 132031Z 1321/1424 28008KT P6SM FEW150 FEW250 
     FM132300 25010G16KT P6SM SCT150 
     FM140300 21007KT P6SM SCT150 
     FM140900 10005KT P6SM SCT250 
     FM141900 26008KT P6SM SCT250
       
KSDF 132011Z 28007KT 10SM VCTS -RA FEW010 BKN035 BKN055 OVC200 24/22 A3001 RMK AO2 LTG DSNT SE TSE11 OCNL LTGIC DSNT SE TS DSIPT P0000 T02390217
KSDF 131947Z 1320/1424 VRB10G20KT 6SM TSRA BKN030CB OVC100 
     TEMPO 1320/1321 2SM TSRA BKN025CB OVC050 
     FM132200 VRB04KT P6SM VCTS SCT050CB BKN150 
     FM132300 VRB03KT P6SM BKN200 
     FM140600 VRB03KT P6SM VCSH SCT050 BKN150 
     FM141300 05006KT P6SM VCSH SCT045 BKN200
       
KIND 131954Z COR 00000KT 10SM BKN045 BKN220 31/19 A3002 RMK AO2 SLP159 T03060194
KIND 132021Z 1320/1424 05006KT P6SM SCT035 BKN100 
     FM140200 05004KT P6SM BKN200 
     FM141500 08004KT P6SM FEW050 BKN120
       
KCVG 131952Z 36007KT 10SM BKN045 BKN230 32/19 A3001 RMK AO2 SLP150 T03170194
KCVG 131734Z 1318/1424 06006KT P6SM SCT045 BKN200 
     FM140100 02004KT P6SM FEW060 OVC200 
     FM141000 04005KT P6SM BKN070 OVC180 
     FM141600 06006KT P6SM VCSH BKN060 OVC150 
     FM141800 07007KT P6SM VCTS BKN060CB OVC120 
     TEMPO 1420/1424 -SHRA OVC040